createdAt,value
2023-03-06T04:42:04.560Z,84.61
2023-03-06T04:45:08.550Z,84.61
2023-03-06T04:48:15.093Z,86.05
2023-03-06T04:51:17.907Z,91.98
2023-03-06T04:54:23.559Z,88.58
2023-03-06T04:57:26.596Z,88.05
2023-03-06T05:00:31.514Z,94.21
2023-03-06T05:03:34.618Z,97.10
2023-03-06T05:06:37.160Z,96.22
2023-03-06T05:09:40.018Z,96.81
2023-03-06T05:12:43.112Z,99.38
2023-03-06T05:15:46.004Z,100.00
2023-03-06T05:18:50.781Z,100.00
2023-03-06T05:21:53.876Z,100.00
2023-03-06T05:24:56.499Z,100.00
2023-03-06T05:27:59.307Z,100.00
2023-03-06T05:31:03.457Z,100.00
2023-03-06T05:34:06.481Z,99.01
2023-03-06T05:37:09.121Z,99.48
2023-03-06T05:40:12.792Z,100.00
2023-03-06T05:43:15.592Z,100.00
2023-03-06T05:46:18.615Z,96.73
2023-03-06T05:49:21.626Z,97.05
2023-03-06T05:52:24.849Z,96.94
2023-03-06T05:55:27.609Z,99.15
2023-03-06T05:58:31.854Z,100.00
2023-03-06T06:01:34.617Z,100.00
2023-03-06T06:04:37.480Z,100.00
2023-03-06T06:07:40.810Z,99.25
2023-03-06T06:10:43.746Z,100.00
2023-03-06T06:13:48.009Z,100.00
2023-03-06T06:16:51.129Z,100.00
2023-03-06T06:19:53.729Z,100.00
2023-03-06T06:22:56.932Z,100.00
2023-03-06T06:26:04.597Z,100.00
2023-03-06T06:29:08.238Z,100.00
2023-03-06T06:32:11.458Z,100.00
2023-03-06T06:35:14.424Z,100.00
2023-03-06T06:38:17.549Z,100.00
2023-03-06T06:44:45.308Z,100.00
2023-03-06T06:47:50.267Z,100.00
2023-03-06T06:51:00.140Z,100.00
2023-03-06T06:54:03.570Z,100.00
2023-03-06T06:57:06.234Z,100.00
2023-03-06T07:00:12.824Z,100.00
2023-03-06T07:03:15.697Z,100.00
2023-03-06T07:06:22.186Z,100.00
2023-03-06T07:09:24.875Z,100.00
2023-03-06T07:12:27.739Z,100.00
2023-03-06T07:15:30.824Z,100.00
2023-03-06T07:18:33.847Z,100.00
2023-03-06T07:21:36.795Z,100.00
2023-03-06T07:24:39.669Z,100.00
2023-03-06T07:27:42.319Z,98.56
2023-03-06T07:30:45.230Z,94.24
2023-03-06T07:33:52.418Z,97.27
2023-03-06T07:36:56.253Z,96.75
2023-03-06T07:39:59.089Z,99.87
2023-03-06T07:43:17.146Z,100.00
2023-03-06T07:46:22.647Z,98.76
2023-03-06T07:49:25.718Z,98.30
2023-03-06T07:52:29.778Z,93.94
2023-03-06T07:55:34.793Z,97.84
2023-03-06T07:58:40.019Z,97.76
2023-03-06T08:01:42.965Z,98.40
2023-03-06T08:04:51.590Z,100.00
2023-03-06T08:07:54.053Z,98.37
2023-03-06T08:10:56.867Z,96.37
2023-03-06T08:14:00.422Z,99.65
2023-03-06T08:17:03.414Z,100.00
2023-03-06T08:20:07.269Z,100.00
2023-03-06T08:23:10.897Z,100.00
2023-03-06T08:26:25.513Z,100.00
2023-03-06T08:29:28.353Z,100.00
2023-03-06T08:32:30.964Z,100.00
2023-03-06T08:35:33.954Z,100.00
2023-03-06T08:38:36.639Z,100.00
2023-03-06T08:41:40.604Z,100.00
2023-03-06T08:44:43.238Z,100.00
2023-03-06T08:47:46.210Z,100.00
2023-03-06T08:50:49.651Z,100.00
2023-03-06T08:53:52.874Z,100.00
2023-03-06T08:56:55.641Z,100.00
2023-03-06T08:59:58.565Z,100.00
2023-03-06T09:03:01.198Z,98.71
2023-03-06T09:06:04.151Z,96.42
2023-03-06T09:09:09.322Z,95.19
2023-03-06T09:12:12.461Z,90.99
2023-03-06T09:15:16.279Z,89.18
2023-03-06T09:18:19.383Z,90.45
2023-03-06T09:21:23.011Z,85.73
2023-03-06T09:24:26.025Z,85.05
2023-03-06T09:27:28.750Z,78.15
2023-03-06T09:30:31.745Z,73.95
2023-03-06T09:33:34.722Z,72.62
2023-03-06T09:36:49.509Z,73.76
2023-03-06T09:39:56.584Z,67.66
2023-03-06T09:42:59.743Z,70.09
2023-03-06T09:46:21.295Z,69.37
2023-03-06T09:49:29.270Z,70.02
2023-03-06T09:52:41.274Z,72.54
2023-03-06T09:55:51.212Z,65.78
2023-03-06T09:58:59.709Z,62.41
2023-03-06T10:02:16.044Z,61.68
2023-03-06T10:05:26.255Z,61.10
2023-03-06T10:08:31.902Z,58.78
2023-03-06T10:11:41.010Z,61.14
2023-03-06T10:14:48.910Z,60.36
2023-03-06T10:17:53.192Z,63.10
2023-03-06T10:21:13.410Z,60.76
2023-03-06T10:25:18.012Z,62.19
2023-03-06T10:28:34.432Z,60.39
2023-03-06T10:31:49.252Z,61.93
2023-03-06T10:34:53.688Z,60.22
2023-03-06T10:38:15.845Z,64.10
2023-03-06T10:41:24.286Z,68.66
2023-03-06T10:44:27.183Z,71.07
2023-03-06T10:47:35.343Z,72.81
2023-03-06T10:50:39.136Z,75.45
2023-03-06T10:53:53.248Z,75.04
2023-03-06T10:56:56.254Z,77.51
2023-03-06T11:00:26.763Z,77.65
2023-03-06T11:03:31.372Z,79.36
2023-03-06T11:06:38.014Z,76.29
2023-03-06T11:09:42.854Z,75.90
2023-03-06T11:13:03.115Z,72.08
2023-03-06T11:16:15.118Z,74.95
2023-03-06T11:19:29.209Z,76.36
2023-03-06T11:22:32.660Z,71.58
2023-03-06T11:25:42.724Z,70.33
2023-03-06T11:29:21.144Z,69.87
2023-03-06T11:32:31.273Z,70.42
2023-03-06T11:35:50.857Z,66.69
2023-03-06T11:38:54.327Z,67.30
2023-03-06T11:42:24.732Z,65.87
2023-03-06T11:45:42.422Z,65.12
2023-03-06T11:49:30.958Z,65.03
2023-03-06T11:53:03.608Z,66.10
2023-03-06T11:56:18.935Z,65.56
2023-03-06T11:59:53.084Z,63.87
2023-03-06T12:03:16.156Z,64.76
2023-03-06T12:06:34.185Z,68.24
2023-03-06T12:13:27.824Z,70.20
2023-03-06T12:16:53.219Z,69.63
2023-03-06T12:20:16.530Z,69.78
2023-03-06T12:23:40.707Z,66.40
2023-03-06T12:26:56.010Z,66.38
2023-03-06T12:30:19.384Z,67.32
2023-03-06T12:33:38.109Z,64.18
2023-03-06T12:36:59.422Z,64.88
2023-03-06T12:40:27.116Z,63.05
2023-03-06T12:43:48.491Z,66.63
2023-03-06T12:47:02.032Z,67.12
2023-03-06T12:50:33.582Z,65.91
2023-03-06T12:53:37.975Z,67.09
2023-03-06T12:56:42.295Z,70.29
2023-03-06T12:59:50.056Z,71.88
2023-03-06T13:03:01.762Z,73.96
2023-03-06T13:06:32.437Z,78.06
2023-03-06T13:09:58.286Z,79.18
2023-03-06T13:13:33.875Z,82.77
2023-03-06T13:16:36.855Z,84.44
2023-03-06T13:19:39.756Z,82.59
2023-03-06T13:22:44.950Z,83.56
2023-03-06T13:25:50.371Z,84.27
2023-03-06T13:28:55.018Z,85.45
2023-03-06T13:32:01.173Z,84.40
2023-03-06T13:35:29.803Z,85.79
2023-03-06T13:38:36.556Z,85.51
2023-03-06T13:41:42.094Z,84.43
2023-03-06T13:44:46.072Z,84.09
2023-03-06T13:48:10.991Z,84.19
2023-03-06T13:51:16.694Z,82.43
2023-03-06T13:54:24.833Z,83.02
2023-03-06T13:58:08.717Z,83.56
2023-03-06T14:01:26.658Z,85.45
2023-03-06T14:04:34.386Z,82.82
2023-03-06T14:07:43.293Z,79.90
2023-03-06T14:10:48.401Z,77.41
2023-03-06T14:13:54.393Z,78.14
2023-03-06T14:16:58.627Z,77.97
2023-03-06T14:20:12.798Z,75.71
2023-03-06T14:23:21.487Z,76.28
2023-03-06T14:26:26.147Z,78.80
2023-03-06T14:29:30.226Z,80.81
2023-03-06T14:32:32.917Z,83.54
2023-03-06T14:35:36.596Z,84.39
2023-03-06T14:38:48.457Z,86.25
2023-03-06T14:41:51.392Z,86.68
2023-03-06T14:45:03.180Z,86.44
2023-03-06T14:48:06.588Z,87.17
2023-03-06T14:51:20.982Z,93.08
2023-03-06T14:54:31.522Z,94.36
2023-03-06T14:57:34.417Z,95.30
2023-03-06T15:00:40.897Z,93.82
2023-03-06T15:03:51.571Z,98.42
2023-03-06T15:06:56.301Z,98.16
2023-03-06T15:10:00.716Z,97.25
2023-03-06T15:13:37.135Z,98.40
2023-03-06T15:16:39.839Z,95.61
2023-03-06T15:19:44.266Z,96.59
2023-03-06T15:22:50.808Z,97.21
2023-03-06T15:25:59.469Z,95.75
2023-03-06T15:29:11.167Z,95.49
2023-03-06T15:32:33.479Z,97.37
2023-03-06T15:35:38.083Z,99.64
2023-03-06T15:39:01.315Z,100.00
2023-03-06T15:42:25.021Z,100.00
2023-03-06T15:45:29.948Z,100.00
2023-03-06T15:48:35.326Z,100.00
2023-03-06T15:51:38.357Z,100.00
2023-03-06T15:54:41.032Z,100.00
2023-03-06T15:57:54.221Z,100.00
2023-03-06T16:00:57.274Z,100.00
2023-03-06T16:04:00.510Z,100.00
2023-03-06T16:07:03.216Z,100.00
2023-03-06T16:10:06.740Z,100.00
2023-03-06T16:13:19.333Z,100.00
2023-03-06T16:16:34.187Z,100.00
2023-03-06T16:19:36.868Z,100.00
2023-03-06T16:22:39.857Z,100.00
2023-03-06T16:25:45.868Z,100.00
2023-03-06T16:28:50.368Z,100.00
2023-03-06T16:31:55.463Z,100.00
2023-03-06T16:34:58.402Z,100.00
2023-03-06T16:38:01.013Z,100.00
2023-03-06T16:41:04.153Z,100.00
2023-03-06T16:44:07.886Z,100.00
